createdAt,value
2022-12-11T00:02:05.068Z,98249.84
2022-12-11T00:04:32.016Z,98241.88
2022-12-11T00:06:58.722Z,98237.00
2022-12-11T00:09:25.390Z,98232.69
2022-12-11T00:11:52.022Z,98216.34
2022-12-11T00:14:18.822Z,98199.44
2022-12-11T00:16:47.978Z,98199.16
2022-12-11T00:19:14.694Z,98202.94
2022-12-11T00:21:41.415Z,98199.44
2022-12-11T00:24:08.425Z,98206.38
2022-12-11T00:26:35.109Z,98200.44
2022-12-11T00:29:01.816Z,98199.91
2022-12-11T00:31:28.513Z,98196.38
2022-12-11T00:33:55.191Z,98193.72
2022-12-11T00:36:25.380Z,98191.56
2022-12-11T00:38:53.927Z,98187.22
2022-12-11T00:41:21.448Z,98178.66
2022-12-11T00:43:48.636Z,98177.53
2022-12-11T00:46:15.462Z,98167.75
2022-12-11T00:48:42.311Z,98166.97
2022-12-11T00:51:09.233Z,98161.72
2022-12-11T00:53:37.196Z,98141.75
2022-12-11T00:56:10.615Z,98147.94
2022-12-11T00:58:37.288Z,98151.69
2022-12-11T01:01:09.807Z,98137.41
2022-12-11T01:03:37.287Z,98127.50
2022-12-11T01:06:04.488Z,98130.72
2022-12-11T01:08:36.778Z,98112.69
2022-12-11T01:11:07.524Z,98093.06
2022-12-11T01:13:34.360Z,98088.16
2022-12-11T01:16:06.528Z,98085.03
2022-12-11T01:18:33.251Z,98071.88
2022-12-11T01:20:59.942Z,98049.06
2022-12-11T01:23:26.587Z,98051.66
2022-12-11T01:25:53.252Z,98045.31
2022-12-11T01:28:19.868Z,98037.72
2022-12-11T01:30:46.576Z,98014.19
2022-12-11T01:33:13.246Z,98004.69
2022-12-11T01:35:40.549Z,97989.78
2022-12-11T01:38:07.226Z,97990.88
2022-12-11T01:40:33.981Z,97997.31
2022-12-11T01:43:00.691Z,98012.44
2022-12-11T01:45:45.012Z,98015.50
2022-12-11T01:48:18.521Z,98011.69
2022-12-11T01:50:52.136Z,97994.84
2022-12-11T01:53:27.694Z,97961.31
2022-12-11T01:55:55.847Z,97959.25
2022-12-11T01:58:26.219Z,97964.63
2022-12-11T02:00:54.030Z,97968.44
2022-12-11T02:03:21.315Z,97978.78
2022-12-11T02:05:48.179Z,97967.56
2022-12-11T02:08:15.510Z,97969.28
2022-12-11T02:11:03.193Z,97987.41
2022-12-11T02:13:42.385Z,97987.41
2022-12-11T02:16:41.996Z,97991.34
2022-12-11T02:19:21.730Z,98001.47
2022-12-11T02:21:53.216Z,97990.03
2022-12-11T02:25:03.659Z,97971.72
2022-12-11T02:27:56.783Z,97969.13
2022-12-11T02:30:24.898Z,97951.31
2022-12-11T02:32:59.560Z,97937.44
2022-12-11T02:35:30.752Z,97947.50
2022-12-11T02:38:12.437Z,97941.38
2022-12-11T02:40:42.528Z,97931.22
2022-12-11T02:43:13.567Z,97944.56
2022-12-11T02:45:42.293Z,97927.09
2022-12-11T02:48:11.730Z,97919.25
2022-12-11T02:50:44.168Z,97934.16
2022-12-11T02:53:13.533Z,97943.81
2022-12-11T02:55:42.661Z,97929.72
2022-12-11T02:58:20.141Z,97935.75
2022-12-11T03:00:47.440Z,97935.25
2022-12-11T03:03:14.714Z,97943.53
2022-12-11T03:05:42.404Z,97947.03
2022-12-11T03:08:09.525Z,97943.09
2022-12-11T03:10:36.226Z,97930.34
2022-12-11T03:13:03.198Z,97917.91
2022-12-11T03:15:49.848Z,97918.84
2022-12-11T03:18:28.461Z,97911.91
2022-12-11T03:21:28.044Z,97899.31
2022-12-11T03:24:05.401Z,97877.06
2022-12-11T03:26:41.543Z,97876.47
2022-12-11T03:29:20.345Z,97887.06
2022-12-11T03:32:09.908Z,97875.53
2022-12-11T03:34:58.158Z,97848.31
2022-12-11T03:37:28.780Z,97847.16
2022-12-11T03:40:02.520Z,97837.06
2022-12-11T03:42:29.776Z,97822.03
2022-12-11T03:44:59.371Z,97840.41
2022-12-11T03:47:28.720Z,97843.25
2022-12-11T03:49:57.183Z,97815.47
2022-12-11T03:52:27.420Z,97810.34
2022-12-11T03:54:56.905Z,97818.63
2022-12-11T03:57:29.237Z,97816.16
2022-12-11T03:59:56.610Z,97802.03
2022-12-11T04:02:23.468Z,97800.34
2022-12-11T04:04:50.167Z,97830.25
2022-12-11T04:07:16.798Z,97780.34
2022-12-11T04:09:43.499Z,97776.34
2022-12-11T04:12:10.193Z,97809.50
2022-12-11T04:14:55.460Z,97801.16
2022-12-11T04:17:40.715Z,97787.22
2022-12-11T04:20:28.024Z,97785.41
2022-12-11T04:23:13.443Z,97816.59
2022-12-11T04:25:40.128Z,97767.91
2022-12-11T04:28:06.818Z,97816.22
2022-12-11T04:30:34.455Z,97807.09
2022-12-11T04:33:02.031Z,97795.63
2022-12-11T04:35:28.899Z,97808.41
2022-12-11T04:37:55.720Z,97829.16
2022-12-11T04:40:22.543Z,97793.97
2022-12-11T04:42:49.203Z,97823.66
2022-12-11T04:45:15.924Z,97839.28
2022-12-11T04:47:42.923Z,97834.16
2022-12-11T04:50:11.564Z,97826.16
2022-12-11T04:52:38.267Z,97830.25
2022-12-11T04:55:06.680Z,97818.63
2022-12-11T04:57:33.404Z,97812.91
2022-12-11T05:00:00.226Z,97829.44
2022-12-11T05:02:27.168Z,97811.47
2022-12-11T05:04:53.839Z,97802.97
2022-12-11T05:07:20.560Z,97785.13
2022-12-11T05:09:47.276Z,97802.81
2022-12-11T05:12:13.917Z,97799.84
2022-12-11T05:14:40.685Z,97806.09
2022-12-11T05:17:07.333Z,97810.06
2022-12-11T05:19:34.044Z,97796.66
2022-12-11T05:22:00.744Z,97800.94
2022-12-11T05:24:27.442Z,97835.53
2022-12-11T05:26:54.130Z,97828.28
2022-12-11T05:29:20.785Z,97839.88
2022-12-11T05:31:47.461Z,97840.91
2022-12-11T05:34:15.309Z,97811.47
2022-12-11T05:36:42.018Z,97809.84
2022-12-11T05:39:09.717Z,97821.31
2022-12-11T05:41:36.367Z,97830.59
2022-12-11T05:44:03.050Z,97825.88
2022-12-11T05:46:31.141Z,97841.94
2022-12-11T05:49:00.553Z,97847.06
2022-12-11T05:51:28.973Z,97838.59
2022-12-11T05:53:56.856Z,97856.19
2022-12-11T05:56:26.620Z,97851.56
2022-12-11T05:58:54.100Z,97862.16
2022-12-11T06:01:32.511Z,97858.13
2022-12-11T06:03:59.640Z,97859.75
2022-12-11T06:06:27.133Z,97849.56
2022-12-11T06:08:56.226Z,97860.03
2022-12-11T06:11:24.577Z,97857.84
2022-12-11T06:13:52.479Z,97855.91
2022-12-11T06:16:19.767Z,97856.13
2022-12-11T06:18:46.960Z,97837.78
2022-12-11T06:21:16.505Z,97841.03
2022-12-11T06:23:44.291Z,97838.38
2022-12-11T06:26:12.026Z,97820.75
2022-12-11T06:28:39.056Z,97816.00
2022-12-11T06:31:06.000Z,97838.44
2022-12-11T06:33:32.949Z,97827.41
2022-12-11T06:36:07.021Z,97852.88
2022-12-11T06:38:33.742Z,97857.28
2022-12-11T06:41:02.701Z,97850.91
2022-12-11T06:43:29.367Z,97844.91
2022-12-11T06:46:00.609Z,97831.53
2022-12-11T06:48:30.275Z,97839.53
2022-12-11T06:50:57.920Z,97844.22
2022-12-11T06:53:24.640Z,97851.78
2022-12-11T06:55:51.418Z,97856.72
2022-12-11T06:58:18.080Z,97855.34
2022-12-11T07:00:44.711Z,97835.31
2022-12-11T07:03:11.893Z,97846.84
2022-12-11T07:05:38.644Z,97821.69
2022-12-11T07:08:05.553Z,97832.13
2022-12-11T07:10:32.856Z,97818.84
2022-12-11T07:12:59.465Z,97834.03
2022-12-11T07:15:26.076Z,97823.00
2022-12-11T07:17:52.811Z,97834.03
2022-12-11T07:20:19.433Z,97849.09
2022-12-11T07:22:46.837Z,97866.78
2022-12-11T07:25:14.420Z,97886.41
2022-12-11T07:27:41.791Z,97874.16
2022-12-11T07:30:09.585Z,97870.03
2022-12-11T07:32:36.474Z,97875.53
2022-12-11T07:35:03.903Z,97864.78
2022-12-11T07:37:30.579Z,97875.16
2022-12-11T07:42:59.783Z,97882.09
2022-12-11T07:45:26.682Z,97886.91
2022-12-11T07:47:53.299Z,97909.34
2022-12-11T07:50:20.078Z,97889.16
2022-12-11T07:52:46.728Z,97872.75
2022-12-11T07:55:13.780Z,97868.31
2022-12-11T07:57:40.696Z,97880.59
2022-12-11T08:00:08.034Z,97879.22
2022-12-11T08:02:37.368Z,97870.06
2022-12-11T08:05:04.926Z,97846.91
2022-12-11T08:07:34.916Z,97858.22
2022-12-11T08:10:02.053Z,97875.56
2022-12-11T08:12:28.778Z,97852.19
2022-12-11T08:14:55.446Z,97851.47
2022-12-11T08:17:25.977Z,97840.25
2022-12-11T08:19:56.124Z,97837.19
2022-12-11T08:22:22.840Z,97823.03
2022-12-11T08:24:49.489Z,97835.06
2022-12-11T08:27:16.210Z,97838.63
2022-12-11T08:29:42.860Z,97814.38
2022-12-11T08:32:12.420Z,97864.03
2022-12-11T08:34:39.593Z,97849.94
2022-12-11T08:37:06.246Z,97856.38
2022-12-11T08:39:32.868Z,97840.09
2022-12-11T08:41:59.623Z,97852.31
2022-12-11T08:44:27.246Z,97832.59
2022-12-11T08:46:53.865Z,97827.31
2022-12-11T08:49:20.558Z,97826.53
2022-12-11T08:51:47.283Z,97827.41
2022-12-11T08:54:13.903Z,97831.09
2022-12-11T08:56:40.699Z,97830.50
2022-12-11T08:59:07.499Z,97844.75
2022-12-11T09:01:34.233Z,97820.03
2022-12-11T09:04:01.062Z,97825.53
2022-12-11T09:06:30.050Z,97835.59
2022-12-11T09:08:59.852Z,97857.97
2022-12-11T09:11:29.399Z,97827.69
2022-12-11T09:13:56.090Z,97828.69
2022-12-11T09:16:25.073Z,97837.47
2022-12-11T09:18:54.500Z,97837.25
2022-12-11T09:21:23.855Z,97837.47
2022-12-11T09:23:54.074Z,97836.09
2022-12-11T09:26:21.423Z,97839.66
2022-12-11T09:28:48.978Z,97843.28
2022-12-11T09:31:18.361Z,97842.97
2022-12-11T09:33:45.838Z,97839.25
2022-12-11T09:36:13.217Z,97839.97
2022-12-11T09:38:40.459Z,97854.44
2022-12-11T09:41:22.240Z,97857.72
2022-12-11T09:44:30.404Z,97840.66
2022-12-11T09:46:58.342Z,97836.97
2022-12-11T09:49:34.483Z,97849.56
2022-12-11T09:52:07.475Z,97855.31
2022-12-11T09:54:34.752Z,97848.44
2022-12-11T09:57:31.942Z,97841.78
2022-12-11T10:00:32.042Z,97837.41
2022-12-11T10:03:10.608Z,97831.19
2022-12-11T10:06:06.622Z,97832.09
2022-12-11T10:08:56.896Z,97830.41
2022-12-11T10:12:00.312Z,97821.75
2022-12-11T10:14:45.957Z,97810.44
2022-12-11T10:17:20.611Z,97819.94
2022-12-11T10:19:48.440Z,97817.66
2022-12-11T10:22:23.740Z,97814.56
2022-12-11T10:25:13.984Z,97820.13
2022-12-11T10:27:41.555Z,97828.69
2022-12-11T10:30:33.044Z,97824.63
2022-12-11T10:33:22.728Z,97823.72
2022-12-11T10:35:55.435Z,97841.47
2022-12-11T10:38:28.096Z,97853.03
2022-12-11T10:41:40.715Z,97837.25
2022-12-11T10:44:17.980Z,97841.88
2022-12-11T10:46:46.401Z,97837.19
2022-12-11T10:49:31.415Z,97832.38
2022-12-11T10:52:01.648Z,97838.78
2022-12-11T10:54:33.840Z,97827.09
2022-12-11T10:57:03.002Z,97830.09
2022-12-11T10:59:50.251Z,97832.38
2022-12-11T11:02:27.232Z,97813.28
2022-12-11T11:04:56.306Z,97814.56
2022-12-11T11:07:27.061Z,97822.50
2022-12-11T11:10:12.019Z,97814.47
2022-12-11T11:12:43.387Z,97816.13
2022-12-11T11:15:14.531Z,97820.94
2022-12-11T11:18:18.308Z,97816.63
2022-12-11T11:20:48.355Z,97812.25
2022-12-11T11:23:16.800Z,97801.38
2022-12-11T11:25:56.261Z,97803.75
2022-12-11T11:28:36.780Z,97793.59
2022-12-11T11:31:14.713Z,97808.16
2022-12-11T11:33:58.872Z,97818.22
2022-12-11T11:36:28.440Z,97819.72
2022-12-11T11:39:25.801Z,97814.53
2022-12-11T11:42:13.794Z,97816.41
2022-12-11T11:44:52.654Z,97828.91
2022-12-11T11:47:34.319Z,97823.75
2022-12-11T11:50:13.730Z,97833.91
2022-12-11T11:53:00.414Z,97842.66
2022-12-11T11:56:15.589Z,97836.56
2022-12-11T11:58:49.037Z,97837.38
2022-12-11T12:01:17.988Z,97822.56
2022-12-11T12:03:47.318Z,97827.13
2022-12-11T12:06:51.197Z,97817.94
2022-12-11T12:09:42.436Z,97814.25
2022-12-11T12:12:51.084Z,97788.53
2022-12-11T12:15:57.353Z,97800.00
2022-12-11T12:18:57.985Z,97795.53
2022-12-11T12:21:42.279Z,97777.56
2022-12-11T12:24:33.506Z,97790.16
2022-12-11T12:27:51.665Z,97783.13
2022-12-11T12:30:22.774Z,97770.19
2022-12-11T12:33:08.043Z,97761.03
2022-12-11T12:35:42.899Z,97779.91
2022-12-11T12:38:23.742Z,97778.94
2022-12-11T12:41:25.843Z,97766.28
2022-12-11T12:44:13.536Z,97765.47
2022-12-11T12:47:02.562Z,97753.28
2022-12-11T12:49:49.377Z,97764.09
2022-12-11T12:52:29.620Z,97764.13
2022-12-11T12:55:14.355Z,97764.13
2022-12-11T12:57:49.502Z,97770.00
2022-12-11T13:00:42.581Z,97757.50
2022-12-11T13:03:21.334Z,97775.78
2022-12-11T13:06:09.520Z,97769.31
2022-12-11T13:08:47.572Z,97750.91
2022-12-11T13:11:18.220Z,97778.69
2022-12-11T13:13:54.987Z,97781.00
2022-12-11T13:16:27.650Z,97765.03
2022-12-11T13:18:54.774Z,97773.31
2022-12-11T13:21:40.995Z,97767.53
2022-12-11T13:24:15.134Z,97777.00
2022-12-11T13:26:42.199Z,97800.59
2022-12-11T13:29:30.488Z,97762.44
2022-12-11T13:32:17.360Z,97767.53
2022-12-11T13:34:57.705Z,97765.75
2022-12-11T13:37:41.243Z,97772.91
2022-12-11T13:40:17.402Z,97771.13
2022-12-11T13:42:57.546Z,97762.84
2022-12-11T13:45:29.803Z,97767.53
2022-12-11T13:47:57.535Z,97783.47
2022-12-11T13:50:34.647Z,97772.41
2022-12-11T13:53:03.590Z,97771.41
2022-12-11T13:55:33.037Z,97778.25
2022-12-11T13:58:00.507Z,97789.34
2022-12-11T14:00:33.029Z,97790.81
2022-12-11T14:03:05.321Z,97786.72
2022-12-11T14:05:33.771Z,97794.00
2022-12-11T14:08:09.201Z,97800.56
2022-12-11T14:10:37.182Z,97816.00
2022-12-11T14:13:11.351Z,97818.09
2022-12-11T14:15:43.913Z,97829.66
2022-12-11T14:18:21.025Z,97823.72
2022-12-11T14:20:54.299Z,97804.13
2022-12-11T14:23:24.063Z,97802.59
2022-12-11T14:26:04.857Z,97810.75
2022-12-11T14:28:43.080Z,97837.22
2022-12-11T14:31:15.931Z,97825.97
2022-12-11T14:33:56.073Z,97816.97
2022-12-11T14:36:23.559Z,97816.31
2022-12-11T14:39:01.655Z,97819.75
2022-12-11T14:41:41.928Z,97810.78
2022-12-11T14:44:14.533Z,97806.44
2022-12-11T14:46:50.375Z,97825.44
2022-12-11T14:49:44.511Z,97820.66
2022-12-11T14:52:19.303Z,97842.88
2022-12-11T14:54:51.555Z,97835.31
2022-12-11T14:57:25.811Z,97843.75
2022-12-11T14:59:54.899Z,97847.88
2022-12-11T15:02:26.334Z,97845.69
2022-12-11T15:05:13.528Z,97834.59
2022-12-11T15:07:53.876Z,97816.75
2022-12-11T15:10:42.261Z,97833.25
2022-12-11T15:13:09.746Z,97811.91
2022-12-11T15:15:46.284Z,97820.78
2022-12-11T15:18:31.124Z,97820.13
2022-12-11T15:21:01.462Z,97833.09
2022-12-11T15:23:29.691Z,97826.53
2022-12-11T15:25:59.178Z,97822.25
2022-12-11T15:28:34.774Z,97808.13
2022-12-11T15:31:08.473Z,97823.34
2022-12-11T15:33:45.831Z,97820.94
2022-12-11T15:36:39.408Z,97826.88
2022-12-11T15:39:09.041Z,97822.09
2022-12-11T15:41:36.039Z,97811.16
2022-12-11T15:44:04.415Z,97814.16
2022-12-11T15:46:36.412Z,97827.78
2022-12-11T15:49:12.456Z,97818.44
2022-12-11T15:54:33.956Z,97811.28
2022-12-11T15:57:05.844Z,97806.00
2022-12-11T15:59:33.468Z,97817.25
2022-12-11T16:02:00.182Z,97822.13
2022-12-11T16:04:27.002Z,97832.41
2022-12-11T16:06:53.635Z,97832.31
2022-12-11T16:09:20.290Z,97822.72
2022-12-11T16:11:47.319Z,97831.38
2022-12-11T16:14:13.920Z,97827.72
2022-12-11T16:16:40.587Z,97817.00
2022-12-11T16:19:07.204Z,97813.53
2022-12-11T16:21:33.866Z,97817.78
2022-12-11T16:24:00.610Z,97824.22
2022-12-11T16:26:27.317Z,97802.81
2022-12-11T16:28:54.051Z,97808.19
2022-12-11T16:31:20.835Z,97818.59
2022-12-11T16:33:47.553Z,97819.72
2022-12-11T16:36:16.961Z,97823.50
2022-12-11T16:38:53.452Z,97816.25
2022-12-11T16:41:20.876Z,97822.44
2022-12-11T16:43:47.584Z,97801.88
2022-12-11T16:46:18.989Z,97840.94
2022-12-11T16:48:45.784Z,97819.00
2022-12-11T16:51:12.409Z,97823.31
2022-12-11T16:53:39.195Z,97809.88
2022-12-11T16:56:07.070Z,97813.59
2022-12-11T16:58:33.713Z,97812.06
2022-12-11T17:01:03.465Z,97793.38
2022-12-11T17:03:31.651Z,97810.94
2022-12-11T17:05:58.634Z,97822.22
2022-12-11T17:08:25.972Z,97824.84
2022-12-11T17:10:53.021Z,97816.84
2022-12-11T17:13:19.689Z,97809.63
2022-12-11T17:15:46.468Z,97796.19
2022-12-11T17:18:13.173Z,97793.81
2022-12-11T17:20:44.604Z,97804.56
2022-12-11T17:23:12.297Z,97815.75
2022-12-11T17:25:43.233Z,97803.41
2022-12-11T17:28:10.361Z,97803.69
2022-12-11T17:30:45.096Z,97797.22
2022-12-11T17:33:12.434Z,97809.78
2022-12-11T17:35:39.107Z,97799.63
2022-12-11T17:38:05.758Z,97798.00
2022-12-11T17:40:32.441Z,97799.06
2022-12-11T17:42:59.154Z,97792.66
2022-12-11T17:45:25.892Z,97766.97
2022-12-11T17:47:52.622Z,97765.34
2022-12-11T17:50:19.572Z,97773.41
2022-12-11T17:52:46.280Z,97751.19
2022-12-11T17:55:13.243Z,97759.41
2022-12-11T17:57:40.144Z,97761.31
2022-12-11T18:00:07.674Z,97760.28
2022-12-11T18:02:34.999Z,97761.09
2022-12-11T18:05:01.811Z,97762.13
2022-12-11T18:07:28.489Z,97764.53
2022-12-11T18:09:55.236Z,97764.75
2022-12-11T18:12:21.916Z,97766.22
2022-12-11T18:14:48.664Z,97781.25
2022-12-11T18:17:15.357Z,97774.06
2022-12-11T18:19:46.025Z,97769.75
2022-12-11T18:22:13.190Z,97767.06
2022-12-11T18:24:39.838Z,97770.13
2022-12-11T18:27:10.260Z,97754.38
2022-12-11T18:29:37.276Z,97764.88
2022-12-11T18:32:04.439Z,97766.97
2022-12-11T18:34:31.111Z,97776.63
2022-12-11T18:36:58.206Z,97778.25
2022-12-11T18:39:25.514Z,97780.66
2022-12-11T18:42:23.897Z,97791.06
2022-12-11T18:44:39.096Z,97774.25
2022-12-11T18:47:07.154Z,97793.56
2022-12-11T18:49:33.870Z,97790.06
2022-12-11T18:52:00.658Z,97780.47
2022-12-11T18:54:27.768Z,97787.63
2022-12-11T18:56:54.449Z,97801.03
2022-12-11T18:59:21.312Z,97802.38
2022-12-11T19:01:48.088Z,97804.50
2022-12-11T19:04:14.748Z,97813.84
2022-12-11T19:06:41.525Z,97794.84
2022-12-11T19:09:09.197Z,97810.16
2022-12-11T19:11:38.475Z,97814.03
2022-12-11T19:14:06.134Z,97799.47
2022-12-11T19:16:42.075Z,97790.59
2022-12-11T19:19:13.187Z,97824.53
2022-12-11T19:21:40.430Z,97832.00
2022-12-11T19:24:09.221Z,97808.00
2022-12-11T19:26:35.908Z,97828.28
2022-12-11T19:29:02.768Z,97821.06
2022-12-11T19:31:31.958Z,97821.06
2022-12-11T19:33:59.150Z,97813.03
2022-12-11T19:36:28.410Z,97813.69
2022-12-11T19:39:01.151Z,97817.91
2022-12-11T19:41:29.479Z,97822.69
2022-12-11T19:43:58.107Z,97824.03
2022-12-11T19:46:25.051Z,97819.75
2022-12-11T19:48:53.908Z,97819.97
2022-12-11T19:51:23.947Z,97818.38
2022-12-11T19:53:51.373Z,97827.19
2022-12-11T19:56:19.712Z,97844.25
2022-12-11T19:58:46.955Z,97852.59
2022-12-11T20:01:24.994Z,97852.41
2022-12-11T20:03:57.254Z,97862.63
2022-12-11T20:06:24.655Z,97879.16
2022-12-11T20:08:51.448Z,97894.50
2022-12-11T20:11:19.136Z,97908.13
2022-12-11T20:13:47.963Z,97918.44
2022-12-11T20:16:16.581Z,97922.38
2022-12-11T20:18:43.555Z,97929.94
2022-12-11T20:21:14.614Z,97944.31
2022-12-11T20:23:41.703Z,97956.00
2022-12-11T20:26:13.438Z,97964.41
2022-12-11T20:28:40.745Z,97955.81
2022-12-11T20:31:19.509Z,97964.59
2022-12-11T20:33:49.007Z,97962.97
2022-12-11T20:36:17.601Z,97977.34
2022-12-11T20:38:45.684Z,97984.47
2022-12-11T20:41:15.171Z,97992.47
2022-12-11T20:43:42.133Z,97993.97
2022-12-11T20:46:11.142Z,98005.66
2022-12-11T20:48:38.757Z,98007.84
2022-12-11T20:51:06.852Z,98007.63
2022-12-11T20:53:35.008Z,98017.72
2022-12-11T20:56:02.441Z,98038.13
2022-12-11T20:58:29.130Z,98042.03
2022-12-11T21:00:55.825Z,98044.19
2022-12-11T21:03:22.579Z,98033.59
2022-12-11T21:05:49.254Z,98039.81
2022-12-11T21:08:15.923Z,98051.00
2022-12-11T21:10:43.933Z,98059.72
2022-12-11T21:13:10.993Z,98056.41
2022-12-11T21:15:39.522Z,98046.47
2022-12-11T21:18:07.905Z,98071.56
2022-12-11T21:20:35.235Z,98063.97
2022-12-11T21:23:03.790Z,98064.63
2022-12-11T21:25:30.553Z,98069.38
2022-12-11T21:27:57.185Z,98064.34
2022-12-11T21:30:23.896Z,98073.53
2022-12-11T21:32:50.567Z,98080.72
2022-12-11T21:35:17.328Z,98081.31
2022-12-11T21:37:43.995Z,98085.47
2022-12-11T21:40:11.176Z,98089.63
2022-12-11T21:42:37.819Z,98092.50
2022-12-11T21:47:51.492Z,98095.78
2022-12-11T21:50:18.427Z,98093.50
2022-12-11T21:52:45.071Z,98085.94
2022-12-11T21:55:12.787Z,98083.88
2022-12-11T21:57:39.727Z,98085.25
2022-12-11T22:00:07.458Z,98098.28
2022-12-11T22:02:40.476Z,98112.66
2022-12-11T22:05:08.126Z,98117.59
2022-12-11T22:07:34.839Z,98109.88
2022-12-11T22:10:01.713Z,98114.16
2022-12-11T22:12:28.879Z,98126.53
2022-12-11T22:14:56.134Z,98115.28
2022-12-11T22:17:23.635Z,98117.78
2022-12-11T22:19:52.093Z,98104.53
2022-12-11T22:22:19.481Z,98103.16
2022-12-11T22:24:46.930Z,98119.25
2022-12-11T22:27:15.133Z,98115.97
2022-12-11T22:29:44.576Z,98128.13
2022-12-11T22:32:11.217Z,98124.34
2022-12-11T22:34:37.893Z,98138.06
2022-12-11T22:37:04.591Z,98142.91
2022-12-11T22:39:31.263Z,98148.66
2022-12-11T22:41:59.669Z,98145.81
2022-12-11T22:44:26.336Z,98157.50
2022-12-11T22:46:52.972Z,98160.97
2022-12-11T22:49:20.453Z,98169.09
2022-12-11T22:51:47.554Z,98166.69
2022-12-11T22:54:14.298Z,98165.81
2022-12-11T22:56:41.938Z,98172.06
2022-12-11T22:59:08.905Z,98171.50
2022-12-11T23:01:35.631Z,98172.66
2022-12-11T23:04:02.235Z,98175.34
2022-12-11T23:06:28.963Z,98178.59
2022-12-11T23:09:01.168Z,98207.22
2022-12-11T23:11:34.921Z,98209.38
2022-12-11T23:14:02.747Z,98224.44
2022-12-11T23:16:29.441Z,98220.16
2022-12-11T23:18:57.684Z,98215.16
2022-12-11T23:21:26.474Z,98207.31
2022-12-11T23:23:53.610Z,98204.59
2022-12-11T23:26:21.750Z,98203.88
2022-12-11T23:28:49.269Z,98184.78
2022-12-11T23:31:16.638Z,98204.91
2022-12-11T23:33:43.379Z,98200.78
2022-12-11T23:36:10.785Z,98202.56
2022-12-11T23:38:37.794Z,98195.63
2022-12-11T23:41:06.016Z,98203.34
2022-12-11T23:43:35.196Z,98215.88
2022-12-11T23:46:03.185Z,98233.25
2022-12-11T23:48:29.955Z,98229.03
2022-12-11T23:51:00.759Z,98235.66
2022-12-11T23:53:28.252Z,98245.13
2022-12-11T23:55:55.210Z,98253.06
2022-12-11T23:58:22.657Z,98252.16
